Time;durP1;ratioP1;P1;durP2;ratioP2;P2;SDS_P1;SDS_P2;PMS_P1;PMS_P2;Temp;Humidity;BMP_temperature;BMP_pressure;BME280_temperature;BME280_humidity;BME280_pressure;Samples;Min_cycle;Max_cycle;Signal;HPM_P1;HPM_P2
2022/11/15 00:01:14;;;;;;;1.08;0.50;;;;;;;;;;5092177;28;20418;-72
2022/11/15 00:04:11;;;;;;;0.50;0.40;;;;;;;;;;5089855;28;20056;-73
2022/11/15 00:07:00;;;;;;;1.33;0.40;;;;;;;;;;5094324;28;20502;-76
2022/11/15 00:09:48;;;;;;;0.47;0.30;;;;;;;;;;5092234;28;20044;-70
2022/11/15 00:12:37;;;;;;;1.85;0.32;;;;;;;;;;5089989;28;20052;-72
2022/11/15 00:15:25;;;;;;;0.28;0.28;;;;;;;;;;5093846;28;20056;-72
2022/11/15 00:18:19;;;;;;;1.15;0.40;;;;;;;;;;5091655;28;20064;-71
2022/11/15 00:21:13;;;;;;;0.30;0.30;;;;;;;;;;5089197;28;20056;-72
2022/11/15 00:24:25;;;;;;;0.68;0.45;;;;;;;;;;5091453;28;20414;-72
2022/11/15 00:27:15;;;;;;;0.80;0.20;;;;;;;;;;5090499;28;20067;-70
2022/11/15 00:30:09;;;;;;;0.60;0.30;;;;;;;;;;5093232;28;20522;-70
2022/11/15 00:33:05;;;;;;;0.98;0.32;;;;;;;;;;5087725;28;20048;-72
2022/11/15 00:35:56;;;;;;;0.32;0.32;;;;;;;;;;5088332;28;20060;-70
2022/11/15 00:38:52;;;;;;;0.30;0.30;;;;;;;;;;5092147;28;20052;-70
2022/11/15 00:41:43;;;;;;;3.03;1.23;;;;;;;;;;5089762;28;20609;-72
2022/11/15 00:44:36;;;;;;;0.40;0.40;;;;;;;;;;5087613;28;20056;-70
2022/11/15 00:47:30;;;;;;;4.22;1.00;;;;;;;;;;5091186;28;20060;-71
2022/11/15 00:50:42;;;;;;;0.50;0.30;;;;;;;;;;5088441;28;20048;-70
2022/11/15 00:53:30;;;;;;;0.40;0.40;;;;;;;;;;5090443;28;20048;-72
2022/11/15 00:56:27;;;;;;;2.72;0.57;;;;;;;;;;5089120;28;20056;-71
2022/11/15 00:59:32;;;;;;;0.70;0.45;;;;;;;;;;5093037;28;20075;-72
2022/11/15 01:02:26;;;;;;;0.38;0.32;;;;;;;;;;5087921;28;20044;-70
2022/11/15 01:05:20;;;;;;;0.60;0.60;;;;;;;;;;5089222;28;20048;-70
2022/11/15 01:08:18;;;;;;;1.65;0.40;;;;;;;;;;5090710;28;20056;-71
2022/11/15 01:11:10;;;;;;;2.15;0.30;;;;;;;;;;5088253;28;20052;-72
2022/11/15 01:13:58;;;;;;;0.75;0.40;;;;;;;;;;5091672;28;20052;-71
2022/11/15 01:16:46;;;;;;;0.80;0.22;;;;;;;;;;5090349;28;20048;-71
2022/11/15 01:19:36;;;;;;;0.57;0.40;;;;;;;;;;5088029;28;20044;-72
2022/11/15 01:22:24;;;;;;;0.77;0.45;;;;;;;;;;5091915;28;20514;-71
2022/11/15 01:25:15;;;;;;;1.20;0.50;;;;;;;;;;5089442;28;20494;-71
2022/11/15 01:28:03;;;;;;;0.70;0.40;;;;;;;;;;5092222;28;20063;-72
2022/11/15 01:30:53;;;;;;;0.95;0.60;;;;;;;;;;5090812;28;20503;-71
2022/11/15 01:33:42;;;;;;;1.65;0.40;;;;;;;;;;5089042;28;20056;-71
2022/11/15 01:36:30;;;;;;;2.42;0.40;;;;;;;;;;5092770;28;20040;-71
2022/11/15 01:39:18;;;;;;;0.47;0.30;;;;;;;;;;5091156;28;20055;-70
2022/11/15 01:42:13;;;;;;;0.43;0.20;;;;;;;;;;5089160;28;20060;-70
2022/11/15 01:45:01;;;;;;;1.60;0.40;;;;;;;;;;5092425;28;20060;-72
2022/11/15 01:47:52;;;;;;;0.55;0.30;;;;;;;;;;5090171;28;20051;-71
2022/11/15 01:50:41;;;;;;;4.10;0.40;;;;;;;;;;5088110;28;20052;-71
2022/11/15 01:53:32;;;;;;;1.90;0.40;;;;;;;;;;5089327;28;20052;-71
2022/11/15 01:56:25;;;;;;;0.40;0.38;;;;;;;;;;5089161;28;20604;-71
2022/11/15 01:59:13;;;;;;;1.40;0.25;;;;;;;;;;5086263;28;20530;-72
2022/11/15 02:02:02;;;;;;;0.47;0.40;;;;;;;;;;5091249;28;20052;-73
2022/11/15 02:04:51;;;;;;;0.70;0.40;;;;;;;;;;5088518;28;20044;-71
2022/11/15 02:07:39;;;;;;;2.85;1.48;;;;;;;;;;5093115;28;21079;-71
2022/11/15 02:10:28;;;;;;;1.55;0.40;;;;;;;;;;5090381;28;20052;-72
2022/11/15 02:13:18;;;;;;;7.78;0.70;;;;;;;;;;5088414;28;20048;-71
2022/11/15 02:16:27;;;;;;;1.55;0.50;;;;;;;;;;5091867;28;20056;-71
2022/11/15 02:19:27;;;;;;;0.30;0.30;;;;;;;;;;5089539;28;20044;-72
2022/11/15 02:22:46;;;;;;;2.15;0.30;;;;;;;;;;5091767;28;20048;-71
2022/11/15 02:26:15;;;;;;;0.45;0.32;;;;;;;;;;5088567;28;20060;-72
2022/11/15 02:29:08;;;;;;;0.90;0.32;;;;;;;;;;5090462;28;20036;-72
2022/11/15 02:32:08;;;;;;;7.80;1.10;;;;;;;;;;5088794;28;20052;-72
2022/11/15 02:35:03;;;;;;;1.58;0.60;;;;;;;;;;5091413;28;20044;-72
2022/11/15 02:38:06;;;;;;;0.55;0.32;;;;;;;;;;5088887;28;20044;-71
2022/11/15 02:41:00;;;;;;;0.50;0.30;;;;;;;;;;5086783;28;20048;-72
2022/11/15 02:44:01;;;;;;;0.73;0.40;;;;;;;;;;5089966;28;20059;-72
2022/11/15 02:47:15;;;;;;;0.85;0.47;;;;;;;;;;5087394;28;20048;-72
2022/11/15 02:50:10;;;;;;;1.42;0.20;;;;;;;;;;5089672;28;20498;-70
2022/11/15 02:52:59;;;;;;;0.70;0.40;;;;;;;;;;5087280;28;20045;-70
2022/11/15 02:55:50;;;;;;;0.35;0.30;;;;;;;;;;5091739;28;20434;-70
2022/11/15 02:59:06;;;;;;;0.38;0.25;;;;;;;;;;5088131;28;20048;-70
2022/11/15 03:02:01;;;;;;;0.30;0.22;;;;;;;;;;5091518;28;20048;-72
2022/11/15 03:04:55;;;;;;;1.23;0.25;;;;;;;;;;5089258;28;20060;-72
2022/11/15 03:07:52;;;;;;;0.95;0.38;;;;;;;;;;5087085;28;20052;-70
2022/11/15 03:10:53;;;;;;;0.43;0.43;;;;;;;;;;5089854;28;20070;-70
2022/11/15 03:14:03;;;;;;;0.40;0.40;;;;;;;;;;5087174;28;20438;-72
2022/11/15 03:17:00;;;;;;;0.45;0.40;;;;;;;;;;5090551;28;20048;-70
2022/11/15 03:19:53;;;;;;;4.47;0.52;;;;;;;;;;5087659;28;20052;-71
2022/11/15 03:22:44;;;;;;;0.85;0.40;;;;;;;;;;5091467;28;20056;-71
2022/11/15 03:25:37;;;;;;;1.40;0.40;;;;;;;;;;5089506;28;20403;-71
2022/11/15 03:28:35;;;;;;;0.70;0.32;;;;;;;;;;5087448;28;20048;-70
2022/11/15 03:34:46;;;;;;;0.55;0.43;;;;;;;;;;5088025;28;20052;-71
2022/11/15 03:37:50;;;;;;;1.15;0.50;;;;;;;;;;5094388;28;20060;-72
2022/11/15 03:40:42;;;;;;;0.40;0.32;;;;;;;;;;5092359;28;20048;-73
2022/11/15 03:43:44;;;;;;;0.60;0.45;;;;;;;;;;5095885;28;20490;-70
2022/11/15 03:46:40;;;;;;;0.57;0.35;;;;;;;;;;5092913;28;20044;-73
2022/11/15 03:49:34;;;;;;;2.80;0.38;;;;;;;;;;5090005;28;20501;-71
2022/11/15 03:52:22;;;;;;;0.75;0.50;;;;;;;;;;5093676;28;20036;-70
2022/11/15 03:55:15;;;;;;;1.15;0.47;;;;;;;;;;5091432;28;20048;-70
2022/11/15 03:58:04;;;;;;;3.35;0.60;;;;;;;;;;5094718;28;20064;-72
2022/11/15 04:00:52;;;;;;;1.60;0.30;;;;;;;;;;5092938;28;20056;-71
2022/11/15 04:03:40;;;;;;;0.32;0.30;;;;;;;;;;5091368;28;20410;-71
2022/11/15 04:06:29;;;;;;;4.03;0.50;;;;;;;;;;5094496;28;20048;-70
2022/11/15 04:09:17;;;;;;;0.50;0.50;;;;;;;;;;5091512;28;20052;-71
2022/11/15 04:12:06;;;;;;;0.28;0.22;;;;;;;;;;5090927;28;20056;-71
2022/11/15 04:15:06;;;;;;;2.05;0.40;;;;;;;;;;5094695;28;20052;-71
2022/11/15 04:17:57;;;;;;;2.67;0.45;;;;;;;;;;5091641;28;20048;-72
2022/11/15 04:26:58;;;;;;;2.80;0.40;;;;;;;;;;5089451;28;20044;-72
2022/11/15 04:29:47;;;;;;;0.35;0.35;;;;;;;;;;5093206;28;20059;-70
2022/11/15 04:32:34;;;;;;;;;;;;;;;;;;5091637;28;20056;-70
2022/11/15 04:35:22;;;;;;;0.65;0.50;;;;;;;;;;5089597;28;19920;-71
2022/11/15 04:38:11;;;;;;;0.80;0.30;;;;;;;;;;5091635;28;20052;-71
2022/11/15 04:41:00;;;;;;;1.90;0.50;;;;;;;;;;5090888;28;20426;-71
2022/11/15 04:43:48;;;;;;;1.00;0.40;;;;;;;;;;5088551;28;20052;-71
2022/11/15 04:46:37;;;;;;;0.40;0.30;;;;;;;;;;5091836;28;20048;-71
2022/11/15 04:49:25;;;;;;;2.80;0.60;;;;;;;;;;5090289;28;20056;-71
2022/11/15 04:52:13;;;;;;;1.58;0.50;;;;;;;;;;5093874;28;20056;-70
2022/11/15 04:55:01;;;;;;;;;;;;;;;;;;5092306;28;20520;-71
2022/11/15 04:58:01;;;;;;;2.05;0.40;;;;;;;;;;5088482;28;19924;-71
2022/11/15 05:00:49;;;;;;;0.50;0.35;;;;;;;;;;5093436;28;20040;-72
2022/11/15 05:06:44;;;;;;;0.75;0.43;;;;;;;;;;5093848;28;20503;-71
2022/11/15 05:09:33;;;;;;;1.25;0.40;;;;;;;;;;5092452;28;20048;-71
2022/11/15 05:12:20;;;;;;;;;;;;;;;;;;5090570;28;20084;-71
2022/11/15 05:15:10;;;;;;;0.47;0.47;;;;;;;;;;5094069;28;20272;-71
2022/11/15 05:18:00;;;;;;;0.52;0.40;;;;;;;;;;5091667;28;20514;-71
2022/11/15 05:20:48;;;;;;;0.40;0.40;;;;;;;;;;5089254;28;20052;-71
2022/11/15 05:23:37;;;;;;;1.50;0.45;;;;;;;;;;5094096;28;20052;-72
2022/11/15 05:26:26;;;;;;;1.73;0.55;;;;;;;;;;5091198;28;20067;-71
2022/11/15 05:29:14;;;;;;;0.43;0.32;;;;;;;;;;5089075;28;20040;-71
2022/11/15 05:32:05;;;;;;;0.75;0.45;;;;;;;;;;5092661;28;20048;-71
2022/11/15 05:34:54;;;;;;;1.08;0.32;;;;;;;;;;5090220;28;20036;-71
2022/11/15 05:37:42;;;;;;;0.50;0.45;;;;;;;;;;5088746;28;20051;-71
2022/11/15 05:40:32;;;;;;;0.40;0.40;;;;;;;;;;5091775;28;20060;-71
2022/11/15 05:43:22;;;;;;;0.82;0.40;;;;;;;;;;5088785;28;20055;-71
2022/11/15 05:46:11;;;;;;;0.73;0.50;;;;;;;;;;5087876;28;20044;-71
2022/11/15 05:48:59;;;;;;;0.70;0.43;;;;;;;;;;5092661;28;20502;-71
2022/11/15 05:51:49;;;;;;;0.88;0.55;;;;;;;;;;5089815;28;20048;-71
2022/11/15 05:54:38;;;;;;;0.63;0.50;;;;;;;;;;5087030;28;20056;-71
2022/11/15 05:57:26;;;;;;;1.38;0.45;;;;;;;;;;5090433;28;20506;-71
2022/11/15 06:00:15;;;;;;;0.50;0.40;;;;;;;;;;5088873;28;20052;-71
2022/11/15 06:03:03;;;;;;;0.40;0.40;;;;;;;;;;5090039;28;20056;-72
2022/11/15 06:05:52;;;;;;;0.93;0.70;;;;;;;;;;5090738;28;20056;-71
2022/11/15 06:08:40;;;;;;;1.02;0.60;;;;;;;;;;5088548;28;20415;-71
2022/11/15 06:11:28;;;;;;;0.40;0.40;;;;;;;;;;5092500;28;20052;-71
2022/11/15 06:14:16;;;;;;;0.38;0.38;;;;;;;;;;5090399;28;20060;-71
2022/11/15 06:17:05;;;;;;;0.95;0.60;;;;;;;;;;5088808;28;20056;-72
2022/11/15 06:19:57;;;;;;;1.08;0.60;;;;;;;;;;5092325;28;20052;-71
2022/11/15 06:22:45;;;;;;;1.52;0.50;;;;;;;;;;5089386;28;20052;-71
2022/11/15 06:25:33;;;;;;;0.43;0.43;;;;;;;;;;5087847;28;20052;-71
2022/11/15 06:28:22;;;;;;;2.15;0.52;;;;;;;;;;5091027;28;20060;-70
2022/11/15 06:31:13;;;;;;;;;;;;;;;;;;5090046;28;20060;-71
2022/11/15 06:34:01;;;;;;;0.88;0.50;;;;;;;;;;5087417;28;19924;-71
2022/11/15 06:36:50;;;;;;;2.42;0.70;;;;;;;;;;5091278;28;20048;-71
2022/11/15 06:39:38;;;;;;;0.73;0.60;;;;;;;;;;5088827;28;20051;-71
2022/11/15 06:42:26;;;;;;;2.45;0.80;;;;;;;;;;5086473;28;20415;-71
2022/11/15 06:45:14;;;;;;;;;;;;;;;;;;5091450;28;20518;-71
2022/11/15 06:48:03;;;;;;;0.45;0.43;;;;;;;;;;5088719;28;19924;-71
2022/11/15 06:50:55;;;;;;;1.15;0.47;;;;;;;;;;5086370;28;20048;-71
2022/11/15 06:53:44;;;;;;;0.80;0.52;;;;;;;;;;5087783;28;20064;-71
2022/11/15 06:56:33;;;;;;;4.05;0.47;;;;;;;;;;5088356;28;20068;-71
2022/11/15 06:59:21;;;;;;;3.03;0.80;;;;;;;;;;5091911;28;20052;-71
2022/11/15 07:02:14;;;;;;;1.75;0.50;;;;;;;;;;5090451;28;20055;-70
2022/11/15 07:05:02;;;;;;;2.47;0.50;;;;;;;;;;5087143;28;20060;-71
2022/11/15 07:07:55;;;;;;;0.95;0.63;;;;;;;;;;5091477;28;20403;-71
2022/11/15 07:10:43;;;;;;;0.90;0.63;;;;;;;;;;5093632;28;20067;-71
2022/11/15 07:13:34;;;;;;;;;;;;;;;;;;5091687;28;20056;-70
2022/11/15 07:16:22;;;;;;;4.43;0.70;;;;;;;;;;5094922;28;19928;-71
2022/11/15 07:19:11;;;;;;;4.10;0.65;;;;;;;;;;5092888;28;20056;-71
2022/11/15 07:21:59;;;;;;;;;;;;;;;;;;5091036;28;20052;-71
2022/11/15 07:24:47;;;;;;;0.88;0.60;;;;;;;;;;5094615;28;19924;-70
2022/11/15 07:27:35;;;;;;;1.05;0.65;;;;;;;;;;5093202;28;20418;-71
2022/11/15 07:30:25;;;;;;;3.03;0.73;;;;;;;;;;5090608;28;20048;-72
2022/11/15 07:33:13;;;;;;;1.25;0.43;;;;;;;;;;5093811;28;20068;-71
2022/11/15 07:36:04;;;;;;;2.58;0.70;;;;;;;;;;5091730;28;20684;-70
2022/11/15 07:38:52;;;;;;;0.90;0.50;;;;;;;;;;5090285;28;20059;-71
2022/11/15 07:41:40;;;;;;;4.63;0.77;;;;;;;;;;5090065;28;20052;-70
2022/11/15 07:44:28;;;;;;;5.45;0.60;;;;;;;;;;5090672;28;20063;-70
2022/11/15 07:47:17;;;;;;;1.10;0.60;;;;;;;;;;5095938;28;20060;-71
2022/11/15 07:50:05;;;;;;;0.50;0.50;;;;;;;;;;5093446;28;20048;-71
2022/11/15 07:52:58;;;;;;;4.35;0.82;;;;;;;;;;5091270;28;20044;-70
2022/11/15 07:55:47;;;;;;;1.23;0.40;;;;;;;;;;5094764;28;20048;-71
2022/11/15 07:58:36;;;;;;;0.55;0.40;;;;;;;;;;5092106;28;20048;-71
2022/11/15 08:01:24;;;;;;;1.38;0.55;;;;;;;;;;5090330;28;20056;-72
2022/11/15 08:04:12;;;;;;;0.95;0.50;;;;;;;;;;5090777;28;20060;-71
2022/11/15 08:07:01;;;;;;;0.70;0.43;;;;;;;;;;5092189;28;20052;-70
2022/11/15 08:09:49;;;;;;;1.10;0.80;;;;;;;;;;5089616;28;20502;-71
2022/11/15 08:12:38;;;;;;;1.45;0.60;;;;;;;;;;5094197;28;20055;-70
2022/11/15 08:15:27;;;;;;;3.63;0.50;;;;;;;;;;5092142;28;20048;-70
2022/11/15 08:18:16;;;;;;;3.63;1.00;;;;;;;;;;5089912;28;20047;-70
2022/11/15 08:21:05;;;;;;;1.73;0.60;;;;;;;;;;5092989;28;20048;-71
2022/11/15 08:23:54;;;;;;;1.85;0.68;;;;;;;;;;5091083;28;20414;-71
2022/11/15 08:26:42;;;;;;;0.88;0.55;;;;;;;;;;5094613;28;20530;-71
2022/11/15 08:29:31;;;;;;;5.18;0.77;;;;;;;;;;5092719;28;20052;-71
2022/11/15 08:32:19;;;;;;;1.23;0.57;;;;;;;;;;5090441;28;20059;-71
2022/11/15 08:35:08;;;;;;;;;;;;;;;;;;5093855;28;20056;-71
2022/11/15 08:37:56;;;;;;;0.98;0.55;;;;;;;;;;5092397;28;19920;-71
2022/11/15 08:40:44;;;;;;;;;;;;;;;;;;5091153;28;20060;-71
2022/11/15 08:43:33;;;;;;;1.95;0.70;;;;;;;;;;5094616;28;19928;-71
2022/11/15 08:46:21;;;;;;;3.15;0.80;;;;;;;;;;5092467;28;20499;-71
2022/11/15 08:49:09;;;;;;;2.58;0.77;;;;;;;;;;5089214;28;20052;-71
2022/11/15 08:51:57;;;;;;;0.60;0.50;;;;;;;;;;5092828;28;20511;-71
2022/11/15 08:54:46;;;;;;;1.27;0.68;;;;;;;;;;5092297;28;20056;-71
2022/11/15 08:57:34;;;;;;;2.40;0.63;;;;;;;;;;5089656;28;20048;-71
2022/11/15 09:00:22;;;;;;;;;;;;;;;;;;5094173;28;20064;-71
2022/11/15 09:03:10;;;;;;;1.15;0.57;;;;;;;;;;5091460;28;19924;-71
2022/11/15 09:05:59;;;;;;;2.90;0.75;;;;;;;;;;5089759;28;20503;-70
2022/11/15 09:08:48;;;;;;;0.80;0.80;;;;;;;;;;5092816;28;20506;-71
2022/11/15 09:11:37;;;;;;;1.15;0.70;;;;;;;;;;5091055;28;20052;-70
2022/11/15 09:14:25;;;;;;;1.52;0.60;;;;;;;;;;5088624;28;20052;-71
2022/11/15 09:17:13;;;;;;;1.55;0.75;;;;;;;;;;5092634;28;20760;-70
2022/11/15 09:20:08;;;;;;;1.73;0.80;;;;;;;;;;5090268;28;20056;-72
2022/11/15 09:23:03;;;;;;;1.73;0.47;;;;;;;;;;5088109;28;20044;-72
2022/11/15 09:25:53;;;;;;;3.45;0.65;;;;;;;;;;5091211;28;20052;-72
2022/11/15 09:28:42;;;;;;;2.33;0.65;;;;;;;;;;5089571;28;20044;-72
2022/11/15 09:31:30;;;;;;;1.08;0.47;;;;;;;;;;5093851;28;20045;-71
2022/11/15 09:34:20;;;;;;;1.85;0.63;;;;;;;;;;5090625;28;20072;-72
2022/11/15 09:37:09;;;;;;;0.50;0.50;;;;;;;;;;5088541;28;20430;-72
2022/11/15 09:39:57;;;;;;;1.25;0.60;;;;;;;;;;5092422;28;20052;-71
2022/11/15 09:42:53;;;;;;;1.75;0.73;;;;;;;;;;5089813;28;20059;-71
2022/11/15 09:45:53;;;;;;;0.60;0.60;;;;;;;;;;5087704;28;20056;-71
2022/11/15 09:48:59;;;;;;;1.30;0.63;;;;;;;;;;5071225;28;20410;-71
2022/11/15 09:52:04;;;;;;;3.33;1.00;;;;;;;;;;5044448;28;20056;-71
2022/11/15 09:54:43;;;;;;;1.50;0.93;;;;;;;;;;5080450;28;20056;-76
2022/11/15 09:57:42;;;;;;;1.52;0.95;;;;;;;;;;5087262;28;20040;-71
2022/11/15 10:00:40;;;;;;;3.83;0.98;;;;;;;;;;5086845;28;20040;-71
2022/11/15 10:03:34;;;;;;;2.03;0.85;;;;;;;;;;5086941;28;20056;-71
2022/11/15 10:06:06;;;;;;;5.50;1.02;;;;;;;;;;5087335;28;20044;-73
2022/11/15 10:08:55;;;;;;;2.78;1.10;;;;;;;;;;5085269;28;20422;-71
2022/11/15 10:11:33;;;;;;;3.45;0.80;;;;;;;;;;5086819;28;20071;-72
2022/11/15 10:14:25;;;;;;;2.50;1.00;;;;;;;;;;5087014;28;20408;-72
2022/11/15 10:17:16;;;;;;;6.15;0.80;;;;;;;;;;5086746;28;20479;-72
2022/11/15 10:20:00;;;;;;;1.85;0.80;;;;;;;;;;5087269;28;20066;-72
2022/11/15 10:22:50;;;;;;;1.35;0.82;;;;;;;;;;5086409;28;20514;-71
2022/11/15 10:25:28;;;;;;;2.75;0.90;;;;;;;;;;5086542;28;20478;-76
2022/11/15 10:27:58;;;;;;;2.17;1.02;;;;;;;;;;5085262;28;20058;-72
2022/11/15 10:30:35;;;;;;;2.17;0.70;;;;;;;;;;5086994;28;20044;-71
2022/11/15 10:33:25;;;;;;;2.47;0.70;;;;;;;;;;5086369;28;20044;-72
2022/11/15 10:36:13;;;;;;;2.53;1.10;;;;;;;;;;5086271;28;20051;-71
2022/11/15 10:38:49;;;;;;;1.63;0.70;;;;;;;;;;5086795;28;20039;-70
2022/11/15 10:41:31;;;;;;;5.03;1.90;;;;;;;;;;5086702;28;20040;-72
2022/11/15 10:44:11;;;;;;;1.02;0.52;;;;;;;;;;5086102;28;20070;-72
2022/11/15 10:46:42;;;;;;;0.60;0.60;;;;;;;;;;5086941;28;20040;-74
2022/11/15 10:49:19;;;;;;;3.00;0.52;;;;;;;;;;5085230;28;20490;-73
2022/11/15 10:51:54;;;;;;;1.23;0.50;;;;;;;;;;5086320;28;20051;-72
2022/11/15 10:54:27;;;;;;;4.68;1.30;;;;;;;;;;5087029;28;20039;-71
2022/11/15 10:57:01;;;;;;;1.73;0.60;;;;;;;;;;5096494;28;20040;-71
2022/11/15 10:59:36;;;;;;;11.73;1.95;;;;;;;;;;5105592;28;20631;-72
2022/11/15 11:03:00;;;;;;;3.90;1.10;;;;;;;;;;5101676;28;20067;-70
2022/11/15 11:05:36;;;;;;;2.03;0.60;;;;;;;;;;5062953;28;20641;-71
2022/11/15 11:08:13;;;;;;;0.70;0.40;;;;;;;;;;5106746;28;20051;-72
2022/11/15 11:10:59;;;;;;;0.40;0.40;;;;;;;;;;5106961;28;20039;-71
2022/11/15 11:13:39;;;;;;;2.33;0.80;;;;;;;;;;5105959;28;20047;-71
2022/11/15 11:16:15;;;;;;;1.35;0.60;;;;;;;;;;5106545;28;20040;-72
2022/11/15 11:19:04;;;;;;;1.17;0.70;;;;;;;;;;5106915;28;20043;-72
2022/11/15 11:22:00;;;;;;;1.65;0.52;;;;;;;;;;5105932;28;20070;-71
2022/11/15 11:24:41;;;;;;;3.28;0.63;;;;;;;;;;5102786;28;20063;-71
2022/11/15 11:27:40;;;;;;;0.65;0.55;;;;;;;;;;5106498;28;20516;-72
2022/11/15 11:30:16;;;;;;;1.10;0.60;;;;;;;;;;5106418;28;20039;-72
2022/11/15 11:32:48;;;;;;;;;;;;;;;;;;5106837;28;20044;-71
2022/11/15 11:35:58;;;;;;;0.95;0.50;;;;;;;;;;5106964;28;19927;-73
2022/11/15 11:39:05;;;;;;;3.42;0.85;;;;;;;;;;5106050;28;20058;-73
2022/11/15 11:41:46;;;;;;;0.43;0.43;;;;;;;;;;5106392;28;20055;-72
2022/11/15 11:44:38;;;;;;;0.63;0.50;;;;;;;;;;5106257;28;20044;-73
2022/11/15 11:47:12;;;;;;;4.70;0.70;;;;;;;;;;5107213;28;20753;-74
2022/11/15 11:49:48;;;;;;;2.78;0.77;;;;;;;;;;5104822;28;20050;-73
2022/11/15 11:52:27;;;;;;;1.92;0.47;;;;;;;;;;5106345;28;20062;-74
2022/11/15 11:55:16;;;;;;;3.33;0.65;;;;;;;;;;5105668;28;20052;-72
2022/11/15 11:58:13;;;;;;;1.75;0.38;;;;;;;;;;5089709;28;20048;-72
2022/11/15 12:00:52;;;;;;;4.60;0.50;;;;;;;;;;5090199;28;20529;-71
2022/11/15 12:03:26;;;;;;;1.70;0.57;;;;;;;;;;5089200;28;20044;-71
2022/11/15 12:06:29;;;;;;;1.50;0.50;;;;;;;;;;5089159;28;20048;-71
2022/11/15 12:09:02;;;;;;;0.70;0.60;;;;;;;;;;5089490;28;20051;-72
2022/11/15 12:11:53;;;;;;;1.95;0.55;;;;;;;;;;5089430;28;20079;-71
2022/11/15 12:14:46;;;;;;;1.17;0.57;;;;;;;;;;5089180;28;20047;-75
2022/11/15 12:17:21;;;;;;;1.08;0.50;;;;;;;;;;5087015;28;20083;-72
2022/11/15 12:19:59;;;;;;;1.73;0.40;;;;;;;;;;5089394;28;20044;-77
2022/11/15 12:22:38;;;;;;;0.43;0.40;;;;;;;;;;5089545;28;20518;-72
2022/11/15 12:25:46;;;;;;;1.05;0.60;;;;;;;;;;5089726;28;20051;-72
2022/11/15 12:28:35;;;;;;;0.32;0.28;;;;;;;;;;5081624;28;20067;-71
2022/11/15 12:31:32;;;;;;;0.50;0.38;;;;;;;;;;5088130;28;20485;-70
2022/11/15 12:34:13;;;;;;;0.60;0.43;;;;;;;;;;5088738;28;20040;-71
2022/11/15 12:36:45;;;;;;;0.65;0.32;;;;;;;;;;5088687;28;20383;-72
2022/11/15 12:39:16;;;;;;;6.00;3.55;;;;;;;;;;5089095;28;20052;-72
2022/11/15 12:41:55;;;;;;;2.08;0.50;;;;;;;;;;5088558;28;20047;-71
2022/11/15 12:44:31;;;;;;;0.40;0.40;;;;;;;;;;5088999;28;20756;-70
2022/11/15 12:47:22;;;;;;;0.52;0.50;;;;;;;;;;5088275;28;20051;-72
2022/11/15 12:49:53;;;;;;;0.35;0.35;;;;;;;;;;5088784;28;20048;-71
2022/11/15 12:52:27;;;;;;;1.45;0.40;;;;;;;;;;5087847;28;20039;-74
2022/11/15 12:55:31;;;;;;;1.02;0.55;;;;;;;;;;5087998;28;20426;-71
2022/11/15 12:58:39;;;;;;;4.05;0.47;;;;;;;;;;5088701;28;20040;-75
2022/11/15 13:01:10;;;;;;;0.82;0.30;;;;;;;;;;5088250;28;20039;-72
2022/11/15 13:04:17;;;;;;;0.35;0.35;;;;;;;;;;5086798;28;20052;-72
2022/11/15 13:06:52;;;;;;;0.30;0.25;;;;;;;;;;5088030;28;20040;-75
2022/11/15 13:09:37;;;;;;;0.50;0.50;;;;;;;;;;5088231;28;20051;-71
2022/11/15 13:12:22;;;;;;;1.35;0.45;;;;;;;;;;5087988;28;20048;-71
2022/11/15 13:14:55;;;;;;;2.03;0.47;;;;;;;;;;5086755;28;20525;-72
2022/11/15 13:17:45;;;;;;;1.73;0.43;;;;;;;;;;5088215;28;20518;-72
2022/11/15 13:20:15;;;;;;;4.20;0.93;;;;;;;;;;5087649;28;20040;-71
2022/11/15 13:23:01;;;;;;;2.78;0.88;;;;;;;;;;5087846;28;20044;-73
2022/11/15 13:25:40;;;;;;;1.83;0.60;;;;;;;;;;5088379;28;20048;-71
2022/11/15 13:28:19;;;;;;;0.30;0.30;;;;;;;;;;5087676;28;20071;-72
2022/11/15 13:31:30;;;;;;;1.58;0.30;;;;;;;;;;5087791;28;20048;-72
2022/11/15 13:34:03;;;;;;;0.35;0.35;;;;;;;;;;5077316;28;20044;-71
2022/11/15 13:36:54;;;;;;;0.45;0.45;;;;;;;;;;5087403;28;20047;-72
2022/11/15 13:39:28;;;;;;;0.77;0.63;;;;;;;;;;5088145;28;20040;-73
2022/11/15 13:41:59;;;;;;;3.03;0.63;;;;;;;;;;5088053;28;20044;-71
2022/11/15 13:44:34;;;;;;;0.28;0.22;;;;;;;;;;5087862;28;20072;-70
2022/11/15 13:47:07;;;;;;;0.40;0.40;;;;;;;;;;5087392;28;20419;-71
2022/11/15 13:49:37;;;;;;;0.40;0.40;;;;;;;;;;5087234;28;20533;-73
2022/11/15 13:52:16;;;;;;;0.85;0.50;;;;;;;;;;5086865;28;20048;-71
2022/11/15 13:55:07;;;;;;;0.68;0.52;;;;;;;;;;5086238;28;20052;-71
2022/11/15 13:57:45;;;;;;;1.95;0.45;;;;;;;;;;5087349;28;20387;-72
2022/11/15 14:00:40;;;;;;;2.50;0.32;;;;;;;;;;5087138;28;20044;-71
2022/11/15 14:03:24;;;;;;;0.35;0.30;;;;;;;;;;5087121;28;20067;-72
2022/11/15 14:06:11;;;;;;;0.45;0.40;;;;;;;;;;5086993;28;20054;-72
2022/11/15 14:08:57;;;;;;;0.30;0.30;;;;;;;;;;5086357;28;20527;-72
2022/11/15 14:11:28;;;;;;;0.30;0.30;;;;;;;;;;5086971;28;20047;-74
2022/11/15 14:14:13;;;;;;;1.55;0.40;;;;;;;;;;5085071;28;20048;-74
2022/11/15 14:16:45;;;;;;;0.30;0.30;;;;;;;;;;5085416;28;20062;-73
2022/11/15 14:19:24;;;;;;;1.50;0.50;;;;;;;;;;5086789;28;20044;-72
2022/11/15 14:22:13;;;;;;;1.80;0.52;;;;;;;;;;5087296;28;20055;-73
2022/11/15 14:24:45;;;;;;;1.58;0.63;;;;;;;;;;5087512;28;20040;-71
2022/11/15 14:27:24;;;;;;;0.20;0.20;;;;;;;;;;5086671;28;20044;-72
2022/11/15 14:29:55;;;;;;;0.20;0.20;;;;;;;;;;5086963;28;20392;-71
2022/11/15 14:32:30;;;;;;;1.02;0.60;;;;;;;;;;5086597;28;20040;-72
2022/11/15 14:35:02;;;;;;;1.95;1.67;;;;;;;;;;5086434;28;20066;-72
2022/11/15 14:37:37;;;;;;;2.25;0.30;;;;;;;;;;5086033;28;20529;-73
2022/11/15 14:40:11;;;;;;;2.38;0.50;;;;;;;;;;5086266;28;20052;-72
2022/11/15 14:42:42;;;;;;;0.22;0.22;;;;;;;;;;5085844;28;20048;-72
2022/11/15 14:45:19;;;;;;;0.35;0.35;;;;;;;;;;5086478;28;20051;-72
2022/11/15 14:47:50;;;;;;;1.60;0.32;;;;;;;;;;5084212;28;20051;-72
2022/11/15 14:50:21;;;;;;;0.80;0.40;;;;;;;;;;5086710;28;20055;-74
2022/11/15 14:52:51;;;;;;;2.15;0.52;;;;;;;;;;5087083;28;20044;-71
2022/11/15 14:55:28;;;;;;;0.40;0.25;;;;;;;;;;5086020;28;20490;-74
2022/11/15 14:58:02;;;;;;;0.60;0.30;;;;;;;;;;5086207;28;20398;-73
2022/11/15 15:00:32;;;;;;;1.25;0.50;;;;;;;;;;5086133;28;20040;-77
2022/11/15 15:03:05;;;;;;;0.30;0.30;;;;;;;;;;5086284;28;20387;-72
2022/11/15 15:05:38;;;;;;;1.17;0.40;;;;;;;;;;5086468;28;20052;-74
2022/11/15 15:08:10;;;;;;;0.63;0.38;;;;;;;;;;5086074;28;20052;-74
2022/11/15 15:10:43;;;;;;;0.82;0.70;;;;;;;;;;5085029;28;20623;-73
2022/11/15 15:13:22;;;;;;;2.10;0.45;;;;;;;;;;5085297;28;20051;-73
2022/11/15 15:15:52;;;;;;;1.10;0.65;;;;;;;;;;5085499;28;20055;-72
2022/11/15 15:18:22;;;;;;;0.60;0.30;;;;;;;;;;5086548;28;20047;-73
2022/11/15 15:20:59;;;;;;;0.60;0.50;;;;;;;;;;5086516;28;20047;-74
2022/11/15 15:23:30;;;;;;;0.40;0.40;;;;;;;;;;5086222;28;20054;-73
2022/11/15 15:26:00;;;;;;;0.45;0.35;;;;;;;;;;5086292;28;20048;-72
2022/11/15 15:28:30;;;;;;;2.08;0.50;;;;;;;;;;5085981;28;20059;-72
2022/11/15 15:31:03;;;;;;;0.43;0.40;;;;;;;;;;5089149;28;20052;-74
2022/11/15 15:33:33;;;;;;;3.33;0.50;;;;;;;;;;5089570;28;20083;-74
2022/11/15 15:36:03;;;;;;;1.35;0.45;;;;;;;;;;5090160;28;20048;-74
2022/11/15 15:38:33;;;;;;;1.48;1.02;;;;;;;;;;5090006;28;20494;-72
2022/11/15 15:41:03;;;;;;;1.45;0.43;;;;;;;;;;5088370;28;20048;-73
2022/11/15 15:43:33;;;;;;;0.52;0.40;;;;;;;;;;5089578;28;20055;-74
2022/11/15 15:46:03;;;;;;;1.33;0.68;;;;;;;;;;5089403;28;20048;-74
2022/11/15 15:48:36;;;;;;;0.40;0.40;;;;;;;;;;5090197;28;20048;-73
2022/11/15 15:51:07;;;;;;;2.63;0.60;;;;;;;;;;5089605;28;20075;-72
2022/11/15 15:53:48;;;;;;;1.73;0.55;;;;;;;;;;5089754;28;20052;-73
2022/11/15 15:56:18;;;;;;;0.50;0.40;;;;;;;;;;5088978;28;20048;-74
2022/11/15 15:58:47;;;;;;;1.08;0.50;;;;;;;;;;5089275;28;20526;-73
2022/11/15 16:01:17;;;;;;;0.98;0.40;;;;;;;;;;5089601;28;20048;-74
2022/11/15 16:03:47;;;;;;;0.30;0.30;;;;;;;;;;5087651;28;20044;-74
2022/11/15 16:06:33;;;;;;;0.40;0.40;;;;;;;;;;5089385;28;20063;-73
2022/11/15 16:09:04;;;;;;;0.60;0.32;;;;;;;;;;5089600;28;20044;-73
2022/11/15 16:11:47;;;;;;;1.80;0.43;;;;;;;;;;5089370;28;20047;-74
2022/11/15 16:14:17;;;;;;;0.35;0.30;;;;;;;;;;5089333;28;20047;-73
2022/11/15 16:16:47;;;;;;;0.52;0.40;;;;;;;;;;5089061;28;20051;-72
2022/11/15 16:19:16;;;;;;;1.48;0.43;;;;;;;;;;5087726;28;20803;-71
2022/11/15 16:21:46;;;;;;;0.43;0.40;;;;;;;;;;5088677;28;20379;-73
2022/11/15 16:24:16;;;;;;;4.93;1.00;;;;;;;;;;5088822;28;20047;-73
2022/11/15 16:26:47;;;;;;;0.40;0.40;;;;;;;;;;5088438;28;20529;-72
2022/11/15 16:29:17;;;;;;;0.22;0.22;;;;;;;;;;5088959;28;20411;-73
2022/11/15 16:31:47;;;;;;;0.28;0.22;;;;;;;;;;5089637;28;20048;-73
2022/11/15 16:34:17;;;;;;;0.22;0.22;;;;;;;;;;5087209;28;20059;-73
2022/11/15 16:36:47;;;;;;;0.30;0.30;;;;;;;;;;5089090;28;20047;-72
2022/11/15 16:39:18;;;;;;;0.40;0.20;;;;;;;;;;5088820;28;20048;-72
2022/11/15 16:41:48;;;;;;;0.52;0.40;;;;;;;;;;5088197;28;20044;-75
2022/11/15 16:44:19;;;;;;;1.38;0.60;;;;;;;;;;5088193;28;20051;-73
2022/11/15 16:46:50;;;;;;;0.30;0.30;;;;;;;;;;5088541;28;20841;-72
2022/11/15 16:49:22;;;;;;;0.52;0.40;;;;;;;;;;5088202;28;20048;-74
2022/11/15 16:51:52;;;;;;;0.22;0.22;;;;;;;;;;5102836;27;20490;-72